TimeAKDT,TemperatureF,Dew PointF,Humidity,Sea Level PressureIn,VisibilityMPH,Wind Direction,Wind SpeedMPH,Gust SpeedMPH,PrecipitationIn,Events,Conditions,WindDirDegrees,DateUTC
12:16 AM,42.8,37.4,81,29.61,5.0,ESE,13.8,23.0,N/A,,Overcast,120,2013-04-26 08:16:00
12:36 AM,42.8,35.6,76,29.61,5.0,ESE,16.1,21.9,N/A,,Overcast,120,2013-04-26 08:36:00
12:56 AM,42.8,35.6,76,29.60,5.0,ESE,17.3,21.9,N/A,,Overcast,110,2013-04-26 08:56:00
1:16 AM,41.0,35.6,81,29.59,5.0,ESE,20.7,25.3,0.01,,Overcast,120,2013-04-26 09:16:00
1:36 AM,41.0,35.6,81,29.59,5.0,ESE,19.6,25.3,0.01,,Overcast,110,2013-04-26 09:36:00
1:56 AM,41.0,35.6,81,29.58,5.0,ESE,20.7,27.6,0.01,,Overcast,120,2013-04-26 09:56:00
2:16 AM,41.0,35.6,81,29.58,4.0,ESE,18.4,25.3,N/A,,Overcast,110,2013-04-26 10:16:00
2:36 AM,41.0,35.6,81,29.57,8.0,ESE,18.4,28.8,N/A,,Overcast,110,2013-04-26 10:36:00
2:56 AM,41.0,35.6,81,29.57,5.0,ESE,18.4,26.5,N/A,,Overcast,110,2013-04-26 10:56:00
3:16 AM,41.0,35.6,81,29.56,5.0,ESE,19.6,24.2,0.01,,Overcast,110,2013-04-26 11:16:00
3:36 AM,41.0,35.6,81,29.56,5.0,ESE,17.3,27.6,0.01,,Overcast,110,2013-04-26 11:36:00
3:56 AM,42.8,37.4,81,29.55,7.0,ESE,18.4,27.6,0.01,,Overcast,110,2013-04-26 11:56:00
4:16 AM,42.8,37.4,81,29.55,6.0,East,19.6,26.5,N/A,,Overcast,100,2013-04-26 12:16:00
4:36 AM,42.8,37.4,81,29.55,7.0,ESE,18.4,25.3,N/A,,Overcast,110,2013-04-26 12:36:00
4:56 AM,42.8,37.4,81,29.56,7.0,ESE,16.1,24.2,N/A,,Overcast,110,2013-04-26 12:56:00
5:16 AM,42.8,37.4,81,29.56,6.0,ESE,17.3,24.2,N/A,,Overcast,120,2013-04-26 13:16:00
5:36 AM,42.8,37.4,81,29.56,7.0,ESE,12.7,-,0.01,,Overcast,120,2013-04-26 13:36:00
5:56 AM,42.8,37.4,81,29.56,7.0,ESE,13.8,20.7,0.01,,Overcast,120,2013-04-26 13:56:00
6:16 AM,44.6,39.2,81,29.55,7.0,ESE,17.3,23.0,N/A,,Overcast,120,2013-04-26 14:16:00
6:36 AM,44.6,39.2,81,29.54,7.0,ESE,18.4,24.2,N/A,,Overcast,110,2013-04-26 14:36:00
6:56 AM,44.6,39.2,81,29.54,7.0,ESE,19.6,24.2,N/A,,Overcast,120,2013-04-26 14:56:00
7:16 AM,44.6,39.2,81,29.52,7.0,SE,19.6,26.5,N/A,,Overcast,130,2013-04-26 15:16:00
7:36 AM,44.6,39.2,81,29.56,7.0,South,8.1,-,0.01,,Overcast,180,2013-04-26 15:36:00
7:56 AM,44.6,39.2,81,29.56,7.0,WSW,6.9,-,0.01,,Overcast,240,2013-04-26 15:56:00
8:16 AM,44.6,39.2,81,29.58,7.0,South,8.1,-,N/A,,Overcast,190,2013-04-26 16:16:00
8:36 AM,44.6,39.2,81,29.58,7.0,Calm,Calm,-,0.01,,Overcast,0,2013-04-26 16:36:00
8:56 AM,44.6,39.2,81,29.57,7.0,NE,4.6,-,0.01,,Overcast,50,2013-04-26 16:56:00
9:16 AM,44.6,39.2,81,29.57,7.0,SSE,6.9,-,N/A,,Overcast,150,2013-04-26 17:16:00
9:36 AM,44.6,39.2,81,29.57,5.0,ESE,4.6,-,0.01,,Overcast,120,2013-04-26 17:36:00
9:56 AM,44.6,39.2,81,29.58,5.0,ESE,6.9,-,0.03,,Overcast,120,2013-04-26 17:56:00
10:16 AM,44.6,37.4,76,29.58,5.0,SE,5.8,-,N/A,,Overcast,130,2013-04-26 18:16:00
10:36 AM,44.6,39.2,81,29.59,5.0,SSE,6.9,-,0.02,,Overcast,150,2013-04-26 18:36:00
10:56 AM,44.6,37.4,76,29.59,5.0,SE,12.7,17.3,0.02,,Overcast,140,2013-04-26 18:56:00
11:16 AM,44.6,37.4,76,29.61,5.0,SSE,5.8,-,N/A,,Overcast,160,2013-04-26 19:16:00
11:36 AM,44.6,37.4,76,29.61,5.0,SSE,5.8,-,0.01,,Overcast,160,2013-04-26 19:36:00
11:56 AM,44.6,37.4,76,29.61,5.0,SE,10.4,19.6,0.02,,Overcast,130,2013-04-26 19:56:00
12:16 PM,44.6,37.4,76,29.61,7.0,ESE,9.2,-,N/A,,Overcast,110,2013-04-26 20:16:00
12:36 PM,44.6,37.4,76,29.60,7.0,ESE,10.4,19.6,0.01,,Overcast,120,2013-04-26 20:36:00
12:56 PM,44.6,37.4,76,29.62,7.0,South,6.9,17.3,0.02,,Overcast,180,2013-04-26 20:56:00
1:16 PM,44.6,35.6,71,29.62,5.0,SE,11.5,21.9,0.01,,Overcast,140,2013-04-26 21:16:00
1:36 PM,44.6,39.2,81,29.62,5.0,South,9.2,-,0.01,,Overcast,170,2013-04-26 21:36:00
1:56 PM,44.6,37.4,76,29.62,4.0,SSE,3.5,-,0.02,,Overcast,150,2013-04-26 21:56:00
2:16 PM,44.6,37.4,76,29.62,4.0,South,5.8,19.6,N/A,,Overcast,170,2013-04-26 22:16:00
2:36 PM,44.6,37.4,76,29.63,4.0,South,5.8,-,N/A,,Overcast,190,2013-04-26 22:36:00
2:56 PM,44.6,37.4,76,29.63,4.0,SSE,6.9,24.2,0.01,,Overcast,160,2013-04-26 22:56:00
3:16 PM,44.6,35.6,71,29.63,4.0,SSE,10.4,20.7,N/A,,Overcast,160,2013-04-26 23:16:00
3:36 PM,44.6,35.6,71,29.62,4.0,SSE,12.7,19.6,N/A,,Overcast,160,2013-04-26 23:36:00
3:56 PM,44.6,37.4,76,29.62,4.0,SSE,6.9,-,0.01,,Overcast,160,2013-04-26 23:56:00
4:16 PM,44.6,35.6,71,29.62,4.0,SSW,5.8,-,N/A,,Overcast,210,2013-04-27 00:16:00
4:36 PM,42.8,37.4,81,29.61,4.0,South,5.8,-,N/A,,Overcast,170,2013-04-27 00:36:00
4:56 PM,42.8,35.6,76,29.60,4.0,SE,3.5,-,N/A,,Overcast,140,2013-04-27 00:56:00
5:16 PM,42.8,37.4,81,29.59,4.0,Calm,Calm,-,0.01,,Overcast,0,2013-04-27 01:16:00
5:36 PM,42.8,37.4,81,29.58,4.0,East,9.2,-,0.01,,Overcast,100,2013-04-27 01:36:00
5:56 PM,42.8,37.4,81,29.57,4.0,SE,3.5,-,0.01,,Overcast,140,2013-04-27 01:56:00
6:16 PM,42.8,37.4,81,29.56,4.0,South,3.5,-,N/A,,Overcast,170,2013-04-27 02:16:00
6:36 PM,42.8,37.4,81,29.55,4.0,ESE,5.8,-,0.01,,Overcast,110,2013-04-27 02:36:00
6:56 PM,42.8,37.4,81,29.54,4.0,Calm,Calm,-,0.01,,Overcast,0,2013-04-27 02:56:00
7:16 PM,42.8,35.6,76,29.54,4.0,Calm,Calm,-,N/A,,Overcast,0,2013-04-27 03:16:00
7:36 PM,41.0,35.6,81,29.54,4.0,West,10.4,-,N/A,,Overcast,280,2013-04-27 03:36:00
7:56 PM,39.2,35.6,87,29.54,4.0,WSW,5.8,-,N/A,,Overcast,250,2013-04-27 03:56:00
8:16 PM,39.2,35.6,87,29.53,4.0,WSW,3.5,-,0.01,,Overcast,250,2013-04-27 04:16:00
8:36 PM,39.2,35.6,87,29.52,4.0,WSW,4.6,-,0.01,,Overcast,240,2013-04-27 04:36:00
8:56 PM,39.2,35.6,87,29.52,4.0,WSW,3.5,-,0.01,,Overcast,250,2013-04-27 04:56:00
9:16 PM,39.2,35.6,87,29.52,4.0,SW,3.5,-,N/A,,Overcast,230,2013-04-27 05:16:00
9:36 PM,39.2,33.8,81,29.53,4.0,South,6.9,-,0.01,,Overcast,170,2013-04-27 05:36:00
9:56 PM,39.2,33.8,81,29.53,4.0,South,6.9,-,0.01,,Overcast,190,2013-04-27 05:56:00
10:16 PM,39.2,33.8,81,29.53,4.0,WSW,4.6,-,N/A,,Overcast,250,2013-04-27 06:16:00
10:36 PM,39.2,33.8,81,29.54,4.0,SSW,6.9,-,N/A,,Overcast,210,2013-04-27 06:36:00
10:56 PM,37.4,32.0,81,29.54,4.0,WSW,6.9,16.1,0.01,,Overcast,250,2013-04-27 06:56:00
11:16 PM,37.4,32.0,81,29.55,10.0,SW,3.5,-,N/A,,Mostly Cloudy,230,2013-04-27 07:16:00
11:36 PM,37.4,30.2,75,29.55,10.0,SW,5.8,-,N/A,,Scattered Clouds,220,2013-04-27 07:36:00
11:56 PM,37.4,30.2,75,29.56,10.0,Calm,Calm,-,0.01,,Partly Cloudy,0,2013-04-27 07:56:00